Time;durP1;ratioP1;P1;durP2;ratioP2;P2;SDS_P1;SDS_P2;PMS_P1;PMS_P2;Temp;Humidity;BMP_temperature;BMP_pressure;BME280_temperature;BME280_humidity;BME280_pressure;Samples;Min_cycle;Max_cycle;Signal;HPM_P1;HPM_P2
2021/12/11 00:02:27;;;;;;;22.15;9.23;;;;;;;;;;5039763;28;20368;-75
2021/12/11 00:04:56;;;;;;;24.65;10.85;;;;;;;;;;5023532;28;20469;-75
2021/12/11 00:07:23;;;;;;;28.30;10.65;;;;;;;;;;5022735;28;20469;-75
2021/12/11 00:09:56;;;;;;;26.20;11.15;;;;;;;;;;5038677;28;20041;-75
2021/12/11 00:12:24;;;;;;;19.25;9.23;;;;;;;;;;5022019;28;20087;-75
2021/12/11 00:14:53;;;;;;;18.42;9.48;;;;;;;;;;5038032;28;20436;-75
2021/12/11 00:17:22;;;;;;;18.25;8.52;;;;;;;;;;5023409;28;20044;-75
2021/12/11 00:19:48;;;;;;;17.23;9.13;;;;;;;;;;5039026;28;20045;-75
2021/12/11 00:22:19;;;;;;;22.55;10.20;;;;;;;;;;5042850;28;20040;-76
2021/12/11 00:24:45;;;;;;;;;;;;;;;;;;5042452;28;20124;-76
2021/12/11 00:27:31;;;;;;;16.90;9.23;;;;;;;;;;5041525;28;20412;-75
2021/12/11 00:29:57;;;;;;;25.00;10.60;;;;;;;;;;5040579;28;20064;-75
2021/12/11 00:32:28;;;;;;;18.75;8.90;;;;;;;;;;5042394;28;20044;-76
2021/12/11 00:34:56;;;;;;;21.50;9.93;;;;;;;;;;5043194;28;20040;-76
2021/12/11 00:37:23;;;;;;;20.67;9.75;;;;;;;;;;5025033;28;20040;-75
2021/12/11 00:39:52;;;;;;;22.88;9.30;;;;;;;;;;5025465;28;20135;-75
2021/12/11 00:42:21;;;;;;;22.83;10.48;;;;;;;;;;5026478;28;20384;-75
2021/12/11 00:44:48;;;;;;;19.85;9.68;;;;;;;;;;5041684;28;20041;-75
2021/12/11 00:47:17;;;;;;;20.55;9.95;;;;;;;;;;5040544;28;20037;-75
2021/12/11 00:49:44;;;;;;;20.75;9.40;;;;;;;;;;5042159;28;20051;-75
2021/12/11 00:52:10;;;;;;;23.63;11.10;;;;;;;;;;5042376;28;20044;-76
2021/12/11 00:54:41;;;;;;;23.23;11.77;;;;;;;;;;5043020;28;20040;-75
2021/12/11 00:57:09;;;;;;;25.15;11.98;;;;;;;;;;5041979;28;20493;-75
2021/12/11 00:59:35;;;;;;;22.73;11.40;;;;;;;;;;5024351;28;20047;-76
2021/12/11 01:02:03;;;;;;;23.60;11.88;;;;;;;;;;5026304;28;20281;-75
2021/12/11 01:04:31;;;;;;;35.05;12.23;;;;;;;;;;5042021;28;20112;-75
2021/12/11 01:07:07;;;;;;;33.03;13.98;;;;;;;;;;5023870;28;20045;-75
2021/12/11 01:09:37;;;;;;;39.20;14.38;;;;;;;;;;5024305;28;20044;-75
2021/12/11 01:12:12;;;;;;;34.78;15.18;;;;;;;;;;5024680;28;20654;-75
2021/12/11 01:14:51;;;;;;;37.97;15.23;;;;;;;;;;5023989;28;20048;-76
2021/12/11 01:17:22;;;;;;;51.53;17.23;;;;;;;;;;5040438;28;20036;-76
2021/12/11 01:19:51;;;;;;;33.78;13.70;;;;;;;;;;5024746;28;20047;-76
2021/12/11 01:22:35;;;;;;;30.92;13.15;;;;;;;;;;5026015;28;20037;-75
2021/12/11 01:25:13;;;;;;;33.33;14.18;;;;;;;;;;5024260;28;20064;-75
2021/12/11 01:27:40;;;;;;;36.25;14.25;;;;;;;;;;5027502;28;20071;-75
2021/12/11 01:30:08;;;;;;;34.00;13.40;;;;;;;;;;5028750;28;20047;-76
2021/12/11 01:32:34;;;;;;;40.75;14.80;;;;;;;;;;5029561;28;20044;-76
2021/12/11 01:35:01;;;;;;;26.13;11.55;;;;;;;;;;5044488;28;20049;-76
2021/12/11 01:37:27;;;;;;;30.30;12.68;;;;;;;;;;5028796;28;20059;-76
2021/12/11 01:39:54;;;;;;;27.75;13.50;;;;;;;;;;5029430;28;20092;-76
2021/12/11 01:42:22;;;;;;;30.58;13.10;;;;;;;;;;5027906;28;20481;-76
2021/12/11 01:44:49;;;;;;;30.52;11.95;;;;;;;;;;5028241;28;20115;-76
2021/12/11 01:47:26;;;;;;;28.30;12.27;;;;;;;;;;5029421;28;20431;-76
2021/12/11 01:49:53;;;;;;;36.63;13.93;;;;;;;;;;5029478;28;20080;-76
2021/12/11 01:52:26;;;;;;;28.35;13.02;;;;;;;;;;5044417;28;20618;-76
2021/12/11 01:54:52;;;;;;;35.45;13.63;;;;;;;;;;5044328;28;20048;-76
2021/12/11 01:57:22;;;;;;;38.08;14.30;;;;;;;;;;5029289;28;20427;-77
2021/12/11 01:59:53;;;;;;;36.22;13.38;;;;;;;;;;5028699;28;20033;-77
2021/12/11 02:02:19;;;;;;;;;;;;;;;;;;5030791;28;20032;-77
2021/12/11 02:04:48;;;;;;;25.58;12.40;;;;;;;;;;5028349;28;19920;-77
2021/12/11 02:07:19;;;;;;;30.45;13.52;;;;;;;;;;5029544;28;20048;-77
2021/12/11 02:09:51;;;;;;;;;;;;;;;;;;5028316;28;20041;-77
2021/12/11 02:12:19;;;;;;;32.58;12.40;;;;;;;;;;5027519;28;19917;-78
2021/12/11 02:14:49;;;;;;;26.92;11.68;;;;;;;;;;5045727;28;20653;-78
2021/12/11 02:17:24;;;;;;;26.48;12.25;;;;;;;;;;5046149;28;20123;-78
2021/12/11 02:19:50;;;;;;;29.42;11.45;;;;;;;;;;5041029;28;20409;-77
2021/12/11 02:22:18;;;;;;;30.60;12.25;;;;;;;;;;5019336;28;20078;-77
2021/12/11 02:24:49;;;;;;;26.40;11.45;;;;;;;;;;5019635;28;20045;-76
2021/12/11 02:27:20;;;;;;;26.33;11.30;;;;;;;;;;5019270;28;20097;-76
2021/12/11 02:29:58;;;;;;;29.23;12.35;;;;;;;;;;5036081;28;20037;-76
2021/12/11 02:32:33;;;;;;;26.88;12.27;;;;;;;;;;5019393;28;20049;-76
2021/12/11 02:35:16;;;;;;;21.98;10.00;;;;;;;;;;5034366;28;20374;-76
2021/12/11 02:37:51;;;;;;;28.88;12.48;;;;;;;;;;5034548;28;20393;-76
2021/12/11 02:40:21;;;;;;;29.67;10.95;;;;;;;;;;5035771;28;20045;-75
2021/12/11 02:42:55;;;;;;;26.85;11.60;;;;;;;;;;5035311;28;20033;-76
2021/12/11 02:45:30;;;;;;;31.17;12.30;;;;;;;;;;5019440;28;20033;-76
2021/12/11 02:47:59;;;;;;;29.67;13.05;;;;;;;;;;5018872;28;20404;-76
2021/12/11 02:50:25;;;;;;;26.15;12.32;;;;;;;;;;5019172;28;20378;-76
2021/12/11 02:53:07;;;;;;;28.02;12.32;;;;;;;;;;5035587;28;20052;-76
2021/12/11 02:55:45;;;;;;;28.13;11.27;;;;;;;;;;5035618;28;20045;-76
2021/12/11 02:58:15;;;;;;;28.13;12.02;;;;;;;;;;5035806;28;20062;-76
2021/12/11 03:00:45;;;;;;;26.30;10.55;;;;;;;;;;5019168;28;20041;-76
2021/12/11 03:03:12;;;;;;;23.42;11.23;;;;;;;;;;5023790;28;20078;-76
2021/12/11 03:05:45;;;;;;;23.77;11.52;;;;;;;;;;5055304;28;20037;-76
2021/12/11 03:08:14;;;;;;;26.02;11.63;;;;;;;;;;5038914;28;20036;-76
2021/12/11 03:10:41;;;;;;;24.25;11.70;;;;;;;;;;5055196;28;20043;-76
2021/12/11 03:13:08;;;;;;;27.85;12.73;;;;;;;;;;5055128;28;20040;-76
2021/12/11 03:15:34;;;;;;;33.95;13.10;;;;;;;;;;5055205;28;20412;-76
2021/12/11 03:18:02;;;;;;;23.48;11.23;;;;;;;;;;5038703;28;20076;-76
2021/12/11 03:20:28;;;;;;;23.98;10.50;;;;;;;;;;5055053;28;20047;-77
2021/12/11 03:22:54;;;;;;;20.30;8.82;;;;;;;;;;5038347;28;20094;-77
2021/12/11 03:25:23;;;;;;;22.65;8.40;;;;;;;;;;5038626;28;20058;-76
2021/12/11 03:27:49;;;;;;;19.73;9.20;;;;;;;;;;5038651;28;20044;-76
2021/12/11 03:30:17;;;;;;;21.35;9.60;;;;;;;;;;5055076;28;20045;-76
2021/12/11 03:32:43;;;;;;;21.90;10.85;;;;;;;;;;5035228;28;20048;-76
2021/12/11 03:35:10;;;;;;;28.42;11.52;;;;;;;;;;5018373;28;20044;-77
2021/12/11 03:37:36;;;;;;;24.65;11.02;;;;;;;;;;5034445;28;20040;-77
2021/12/11 03:40:04;;;;;;;27.10;10.90;;;;;;;;;;5018423;28;20400;-77
2021/12/11 03:42:32;;;;;;;21.48;10.02;;;;;;;;;;5034646;28;20041;-77
2021/12/11 03:45:00;;;;;;;18.05;9.57;;;;;;;;;;5018131;28;20033;-77
2021/12/11 03:47:28;;;;;;;21.15;11.32;;;;;;;;;;5018875;28;20041;-78
2021/12/11 03:49:55;;;;;;;23.60;11.65;;;;;;;;;;5035325;28;20128;-78
2021/12/11 03:52:21;;;;;;;21.92;10.63;;;;;;;;;;5036435;28;20063;-78
2021/12/11 03:54:48;;;;;;;22.92;11.48;;;;;;;;;;5020282;28;20048;-78
2021/12/11 03:57:16;;;;;;;23.05;10.45;;;;;;;;;;5036307;28;20136;-78
2021/12/11 03:59:47;;;;;;;29.35;12.13;;;;;;;;;;5019106;28;20051;-78
2021/12/11 04:02:13;;;;;;;;;;;;;;;;;;5035698;28;20123;-77
2021/12/11 04:04:42;;;;;;;25.75;12.85;;;;;;;;;;5034006;28;20394;-77
2021/12/11 04:07:10;;;;;;;25.13;12.38;;;;;;;;;;5037762;28;20037;-77
2021/12/11 04:09:36;;;;;;;32.38;13.10;;;;;;;;;;5054797;28;20048;-77
2021/12/11 04:12:03;;;;;;;27.90;12.25;;;;;;;;;;5054344;28;20377;-77
2021/12/11 04:14:33;;;;;;;34.22;13.20;;;;;;;;;;5037539;28;20131;-77
2021/12/11 04:17:00;;;;;;;25.65;11.48;;;;;;;;;;5037405;28;20041;-77
2021/12/11 04:19:27;;;;;;;25.25;11.52;;;;;;;;;;5037874;28;20036;-77
2021/12/11 04:21:53;;;;;;;28.13;12.65;;;;;;;;;;5037849;28;20032;-77
2021/12/11 04:24:21;;;;;;;29.23;12.68;;;;;;;;;;5037247;28;20477;-77
2021/12/11 04:26:49;;;;;;;25.92;11.27;;;;;;;;;;5037279;28;20216;-77
2021/12/11 04:29:15;;;;;;;24.17;10.95;;;;;;;;;;5037474;28;20085;-77
2021/12/11 04:31:42;;;;;;;28.25;10.82;;;;;;;;;;5037425;28;20040;-77
2021/12/11 04:34:08;;;;;;;26.33;11.70;;;;;;;;;;5052099;28;20481;-77
2021/12/11 04:36:37;;;;;;;29.80;13.55;;;;;;;;;;5037323;28;20519;-77
2021/12/11 04:39:05;;;;;;;31.90;12.85;;;;;;;;;;5039366;28;20115;-78
2021/12/11 04:41:38;;;;;;;27.73;12.68;;;;;;;;;;5034068;28;20138;-79
2021/12/11 04:44:07;;;;;;;31.25;12.55;;;;;;;;;;5017311;28;20040;-79
2021/12/11 04:46:33;;;;;;;25.83;11.45;;;;;;;;;;5033545;28;20046;-78
2021/12/11 04:49:21;;;;;;;31.65;13.68;;;;;;;;;;5017234;28;20043;-77
2021/12/11 04:55:05;;;;;;;33.03;13.65;;;;;;;;;;5000939;28;20100;-78
2021/12/11 05:07:43;;;;;;;30.90;11.75;;;;;;;;;;5033683;28;20079;-77
2021/12/11 05:10:16;;;;;;;27.83;11.70;;;;;;;;;;5036794;28;20073;-77
2021/12/11 05:12:43;;;;;;;27.75;12.85;;;;;;;;;;5036902;28;20071;-77
2021/12/11 05:15:12;;;;;;;28.10;13.13;;;;;;;;;;5036655;28;20040;-77
2021/12/11 05:17:38;;;;;;;32.80;12.82;;;;;;;;;;5036927;28;20044;-76
2021/12/11 05:20:05;;;;;;;32.72;14.73;;;;;;;;;;5036985;28;20094;-76
2021/12/11 05:22:31;;;;;;;41.63;16.85;;;;;;;;;;5036550;28;20040;-77
2021/12/11 05:24:58;;;;;;;30.75;13.70;;;;;;;;;;5036691;28;20040;-77
2021/12/11 05:27:24;;;;;;;57.35;29.17;;;;;;;;;;5036795;28;20044;-77
2021/12/11 05:29:51;;;;;;;34.13;16.00;;;;;;;;;;5036566;28;20492;-77
2021/12/11 05:32:18;;;;;;;37.53;15.73;;;;;;;;;;5053101;28;20072;-77
2021/12/11 05:34:44;;;;;;;28.70;12.90;;;;;;;;;;5017480;28;20052;-77
2021/12/11 05:37:10;;;;;;;31.48;14.25;;;;;;;;;;5016655;28;20250;-77
2021/12/11 05:39:36;;;;;;;29.92;12.60;;;;;;;;;;5032881;28;20060;-77
2021/12/11 05:42:03;;;;;;;32.35;13.68;;;;;;;;;;5016504;28;20036;-76
2021/12/11 05:44:29;;;;;;;32.50;14.13;;;;;;;;;;5016182;28;20461;-77
2021/12/11 05:46:55;;;;;;;27.73;13.57;;;;;;;;;;5032936;28;20041;-77
2021/12/11 05:49:22;;;;;;;29.77;12.80;;;;;;;;;;5016761;28;20094;-77
2021/12/11 05:51:49;;;;;;;27.83;13.48;;;;;;;;;;5033190;28;20040;-77
2021/12/11 05:54:17;;;;;;;28.75;11.90;;;;;;;;;;5016601;28;20037;-77
2021/12/11 05:56:44;;;;;;;25.88;12.07;;;;;;;;;;5016871;28;20044;-78
2021/12/11 05:59:11;;;;;;;26.83;13.25;;;;;;;;;;5016667;28;20036;-77
2021/12/11 06:01:39;;;;;;;33.42;14.20;;;;;;;;;;5016428;28;20049;-78
2021/12/11 06:04:16;;;;;;;27.52;11.98;;;;;;;;;;5015074;28;20370;-78
2021/12/11 06:06:43;;;;;;;31.52;13.50;;;;;;;;;;5032398;28;20033;-78
2021/12/11 06:09:10;;;;;;;31.77;13.77;;;;;;;;;;5032727;28;20052;-78
2021/12/11 06:11:37;;;;;;;28.50;13.18;;;;;;;;;;5032776;28;20502;-78
2021/12/11 06:14:04;;;;;;;29.75;12.85;;;;;;;;;;5019499;28;20044;-78
2021/12/11 06:16:30;;;;;;;33.78;13.95;;;;;;;;;;5036816;28;20052;-77
2021/12/11 06:19:02;;;;;;;63.35;16.10;;;;;;;;;;5020928;28;20079;-78
2021/12/11 06:21:28;;;;;;;29.85;14.60;;;;;;;;;;5037085;28;20041;-77
2021/12/11 06:23:54;;;;;;;29.38;13.70;;;;;;;;;;5020402;28;20056;-77
2021/12/11 06:26:20;;;;;;;32.13;13.15;;;;;;;;;;5020611;28;20037;-77
2021/12/11 06:28:46;;;;;;;35.63;14.48;;;;;;;;;;5019895;28;20037;-77
2021/12/11 06:31:18;;;;;;;35.60;13.48;;;;;;;;;;5019671;28;20048;-77
2021/12/11 06:33:44;;;;;;;26.98;12.65;;;;;;;;;;5019768;28;20413;-77
2021/12/11 06:36:11;;;;;;;33.05;13.23;;;;;;;;;;5019405;28;20048;-77
2021/12/11 06:38:38;;;;;;;25.75;12.07;;;;;;;;;;5019462;28;20045;-77
2021/12/11 06:41:05;;;;;;;24.10;12.20;;;;;;;;;;5035808;28;20100;-77
2021/12/11 06:43:31;;;;;;;29.15;12.40;;;;;;;;;;5035917;28;20493;-77
2021/12/11 06:45:57;;;;;;;24.98;12.10;;;;;;;;;;5019596;28;20045;-76
2021/12/11 06:48:23;;;;;;;30.83;13.23;;;;;;;;;;5035763;28;20055;-77
2021/12/11 06:50:50;;;;;;;31.85;13.32;;;;;;;;;;5019309;28;20286;-77
2021/12/11 06:53:20;;;;;;;26.77;10.98;;;;;;;;;;5019107;28;20044;-77
2021/12/11 06:55:46;;;;;;;26.80;12.00;;;;;;;;;;5019054;28;20102;-77
2021/12/11 06:58:12;;;;;;;33.75;13.93;;;;;;;;;;5035493;28;20119;-77
2021/12/11 07:00:39;;;;;;;32.63;13.80;;;;;;;;;;5035652;28;20385;-77
2021/12/11 07:03:04;;;;;;;32.85;14.13;;;;;;;;;;5035374;28;20033;-76
2021/12/11 07:05:31;;;;;;;26.20;12.98;;;;;;;;;;5019315;28;20041;-76
2021/12/11 07:07:58;;;;;;;31.15;13.55;;;;;;;;;;5018943;28;20033;-77
2021/12/11 07:10:24;;;;;;;31.45;12.88;;;;;;;;;;5035476;28;20056;-77
2021/12/11 07:12:51;;;;;;;31.25;12.80;;;;;;;;;;5018829;28;20040;-77
2021/12/11 07:15:18;;;;;;;27.77;12.38;;;;;;;;;;5018673;28;20412;-76
2021/12/11 07:17:44;;;;;;;32.65;13.57;;;;;;;;;;5019264;28;20113;-77
2021/12/11 07:20:12;;;;;;;24.50;11.75;;;;;;;;;;5035099;28;20079;-77
2021/12/11 07:22:41;;;;;;;30.33;12.77;;;;;;;;;;5034581;28;20053;-79
2021/12/11 07:25:23;;;;;;;27.25;11.85;;;;;;;;;;5018782;28;20045;-76
2021/12/11 07:27:50;;;;;;;31.80;13.63;;;;;;;;;;5018651;28;20040;-76
2021/12/11 07:30:16;;;;;;;32.28;13.10;;;;;;;;;;5034983;28;20037;-76
2021/12/11 07:32:42;;;;;;;27.08;12.95;;;;;;;;;;5018439;28;20049;-77
2021/12/11 07:35:09;;;;;;;23.85;11.65;;;;;;;;;;5034886;28;20056;-77
2021/12/11 07:37:35;;;;;;;28.13;12.52;;;;;;;;;;5035353;28;20045;-76
2021/12/11 07:40:02;;;;;;;31.50;13.50;;;;;;;;;;5033141;28;20046;-76
2021/12/11 07:42:28;;;;;;;30.67;12.32;;;;;;;;;;5014575;28;20037;-76
2021/12/11 07:44:53;;;;;;;35.53;13.77;;;;;;;;;;5030765;28;20047;-76
2021/12/11 07:47:19;;;;;;;32.30;13.02;;;;;;;;;;5014943;28;20519;-76
2021/12/11 07:49:45;;;;;;;30.70;13.00;;;;;;;;;;5014852;28;20421;-76
2021/12/11 07:52:11;;;;;;;23.77;11.65;;;;;;;;;;5014655;28;20090;-76
2021/12/11 07:54:37;;;;;;;33.67;12.98;;;;;;;;;;5014687;28;20056;-77
2021/12/11 07:57:04;;;;;;;22.77;10.50;;;;;;;;;;5030969;28;20095;-76
2021/12/11 07:59:30;;;;;;;25.65;12.60;;;;;;;;;;5030830;28;20242;-76
2021/12/11 08:01:56;;;;;;;34.67;14.75;;;;;;;;;;5014504;28;20552;-76
2021/12/11 08:04:23;;;;;;;32.35;12.52;;;;;;;;;;5014324;28;20036;-76
2021/12/11 08:06:49;;;;;;;29.23;12.05;;;;;;;;;;5014455;28;20052;-76
2021/12/11 08:09:16;;;;;;;26.20;13.27;;;;;;;;;;5014064;28;20041;-76
2021/12/11 08:11:43;;;;;;;35.65;13.75;;;;;;;;;;5014714;28;20421;-77
2021/12/11 08:14:10;;;;;;;32.28;14.35;;;;;;;;;;5030805;28;20135;-77
2021/12/11 08:16:44;;;;;;;34.50;14.70;;;;;;;;;;5014371;28;20527;-77
2021/12/11 08:19:12;;;;;;;40.33;14.05;;;;;;;;;;5031268;28;20393;-76
2021/12/11 08:21:38;;;;;;;31.05;13.07;;;;;;;;;;5030027;28;20096;-76
2021/12/11 08:24:06;;;;;;;29.63;12.63;;;;;;;;;;5030461;28;20092;-76
2021/12/11 08:26:33;;;;;;;30.45;12.90;;;;;;;;;;5030209;28;20051;-76
2021/12/11 08:28:59;;;;;;;34.05;14.70;;;;;;;;;;5030060;28;20091;-77
2021/12/11 08:31:25;;;;;;;30.98;13.52;;;;;;;;;;5013938;28;20040;-76
2021/12/11 08:33:53;;;;;;;27.55;13.43;;;;;;;;;;5013364;28;20127;-77
2021/12/11 08:36:20;;;;;;;35.08;14.23;;;;;;;;;;5030195;28;20045;-76
2021/12/11 08:38:46;;;;;;;35.70;13.73;;;;;;;;;;5013576;28;20509;-76
2021/12/11 08:41:16;;;;;;;33.00;14.00;;;;;;;;;;5030728;28;20093;-76
2021/12/11 08:43:46;;;;;;;35.63;15.15;;;;;;;;;;5014595;28;20094;-77
2021/12/11 08:46:22;;;;;;;34.80;13.70;;;;;;;;;;5029879;28;20588;-77
2021/12/11 08:48:48;;;;;;;35.88;15.52;;;;;;;;;;5030202;28;20432;-77
2021/12/11 08:51:17;;;;;;;35.30;15.77;;;;;;;;;;5030247;28;20052;-77
2021/12/11 08:53:44;;;;;;;37.08;16.05;;;;;;;;;;5013893;28;20393;-77
2021/12/11 08:56:11;;;;;;;45.53;19.50;;;;;;;;;;5030206;28;20079;-77
2021/12/11 08:58:38;;;;;;;41.55;17.63;;;;;;;;;;5013346;28;20127;-77
2021/12/11 09:01:13;;;;;;;37.42;15.05;;;;;;;;;;5029707;28;20115;-77
2021/12/11 09:03:44;;;;;;;34.95;14.68;;;;;;;;;;5013579;28;20520;-76
2021/12/11 09:06:10;;;;;;;39.17;17.33;;;;;;;;;;5030049;28;20473;-76
2021/12/11 09:09:03;;;;;;;36.58;16.60;;;;;;;;;;5013356;28;20107;-76
2021/12/11 09:11:31;;;;;;;32.60;14.05;;;;;;;;;;5009004;28;20114;-76
2021/12/11 09:14:17;;;;;;;32.72;16.50;;;;;;;;;;5030668;28;20084;-75
2021/12/11 09:16:48;;;;;;;34.72;14.80;;;;;;;;;;5013625;28;20132;-75
2021/12/11 09:19:14;;;;;;;42.50;15.93;;;;;;;;;;5013291;28;20076;-76
2021/12/11 09:21:44;;;;;;;36.38;16.38;;;;;;;;;;5012940;28;20467;-75
2021/12/11 09:24:13;;;;;;;43.83;17.75;;;;;;;;;;5029684;28;20075;-75
2021/12/11 09:26:50;;;;;;;47.38;18.52;;;;;;;;;;5013550;28;20052;-75
2021/12/11 09:29:19;;;;;;;47.45;19.55;;;;;;;;;;5029736;28;20049;-75
2021/12/11 09:31:56;;;;;;;48.58;19.70;;;;;;;;;;5013229;28;20071;-74
2021/12/11 09:34:24;;;;;;;46.60;20.15;;;;;;;;;;5029206;28;20048;-75
2021/12/11 09:36:54;;;;;;;56.97;20.33;;;;;;;;;;5012829;28;20044;-75
2021/12/11 09:39:24;;;;;;;49.50;19.98;;;;;;;;;;5029573;28;20095;-76
2021/12/11 09:41:50;;;;;;;53.90;21.48;;;;;;;;;;5029567;28;20085;-76
2021/12/11 09:44:18;;;;;;;53.55;19.33;;;;;;;;;;5013010;28;20041;-76
2021/12/11 09:46:47;;;;;;;49.13;19.35;;;;;;;;;;5013563;28;20083;-77
2021/12/11 09:49:15;;;;;;;52.90;19.85;;;;;;;;;;5033285;28;20049;-77
2021/12/11 09:51:45;;;;;;;51.22;21.10;;;;;;;;;;5017090;28;20098;-77
2021/12/11 09:54:15;;;;;;;49.07;20.73;;;;;;;;;;5017422;28;20043;-77
2021/12/11 09:56:43;;;;;;;44.50;19.73;;;;;;;;;;5033404;28;20491;-76
2021/12/11 09:59:11;;;;;;;51.33;21.48;;;;;;;;;;5016738;28;20041;-76
2021/12/11 10:01:39;;;;;;;49.70;19.08;;;;;;;;;;5033488;28;20044;-76
2021/12/11 10:04:10;;;;;;;49.63;19.10;;;;;;;;;;5033433;28;20080;-78
2021/12/11 10:06:44;;;;;;;49.13;18.63;;;;;;;;;;5033384;28;20044;-77
2021/12/11 10:09:22;;;;;;;43.60;17.08;;;;;;;;;;5032904;28;20045;-77
2021/12/11 10:12:08;;;;;;;43.55;18.55;;;;;;;;;;5016699;28;20045;-78
2021/12/11 10:14:39;;;;;;;46.63;18.05;;;;;;;;;;5016436;28;20095;-77
2021/12/11 10:17:09;;;;;;;46.58;20.10;;;;;;;;;;5016512;28;20516;-77
2021/12/11 10:19:35;;;;;;;51.22;19.60;;;;;;;;;;5016633;28;20044;-78
2021/12/11 10:22:08;;;;;;;49.72;18.63;;;;;;;;;;5032668;28;20045;-78
2021/12/11 10:24:35;;;;;;;51.10;19.85;;;;;;;;;;5029389;28;20062;-77
2021/12/11 10:27:02;;;;;;;49.13;19.70;;;;;;;;;;5013415;28;20478;-78
2021/12/11 10:29:28;;;;;;;53.58;20.48;;;;;;;;;;5012828;28;20064;-77
2021/12/11 10:31:56;;;;;;;39.15;17.38;;;;;;;;;;5012723;28;20124;-78
2021/12/11 10:34:24;;;;;;;43.60;17.42;;;;;;;;;;5012729;28;20502;-78
2021/12/11 10:36:53;;;;;;;45.45;18.85;;;;;;;;;;5012763;28;20048;-77
2021/12/11 10:39:19;;;;;;;45.25;19.38;;;;;;;;;;5029240;28;20486;-77
2021/12/11 10:41:45;;;;;;;44.70;18.80;;;;;;;;;;5028950;28;20442;-77
2021/12/11 10:44:16;;;;;;;45.20;19.02;;;;;;;;;;5012669;28;20052;-77
2021/12/11 10:46:44;;;;;;;48.65;18.90;;;;;;;;;;5012347;28;20448;-77
2021/12/11 10:49:12;;;;;;;43.72;18.05;;;;;;;;;;5029412;28;20037;-77
2021/12/11 10:51:43;;;;;;;48.83;18.02;;;;;;;;;;5030316;28;20045;-76
2021/12/11 10:54:10;;;;;;;39.22;16.70;;;;;;;;;;5013058;28;20508;-75
2021/12/11 10:56:37;;;;;;;45.13;18.67;;;;;;;;;;5012055;28;20580;-76
2021/12/11 10:59:08;;;;;;;40.78;16.60;;;;;;;;;;5011914;28;20076;-75
2021/12/11 11:01:49;;;;;;;38.50;18.38;;;;;;;;;;5012043;28;20577;-75
2021/12/11 11:04:18;;;;;;;46.30;17.92;;;;;;;;;;5028820;28;20551;-76
2021/12/11 11:06:45;;;;;;;41.30;17.98;;;;;;;;;;5012161;28;20048;-76
2021/12/11 11:09:12;;;;;;;48.03;17.90;;;;;;;;;;5011648;28;20046;-76
2021/12/11 11:11:38;;;;;;;41.67;17.42;;;;;;;;;;5028657;28;20521;-76
2021/12/11 11:14:05;;;;;;;42.72;16.65;;;;;;;;;;5012292;28;20053;-76
2021/12/11 11:16:32;;;;;;;50.78;18.58;;;;;;;;;;5028312;28;20107;-77
2021/12/11 11:18:58;;;;;;;37.13;16.45;;;;;;;;;;5012282;28;20045;-75
2021/12/11 11:21:26;;;;;;;35.45;16.33;;;;;;;;;;5011474;28;20049;-75
2021/12/11 11:23:52;;;;;;;40.30;17.70;;;;;;;;;;5028073;28;20057;-76
2021/12/11 11:26:24;;;;;;;38.42;17.13;;;;;;;;;;5011467;28;20056;-76
2021/12/11 11:28:50;;;;;;;37.03;16.98;;;;;;;;;;5028446;28;20524;-77
2021/12/11 11:31:18;;;;;;;36.63;16.02;;;;;;;;;;5011662;28;20132;-76
2021/12/11 11:33:45;;;;;;;36.50;16.15;;;;;;;;;;5027990;28;20081;-77
2021/12/11 11:36:14;;;;;;;40.08;17.00;;;;;;;;;;5011480;28;20494;-76
2021/12/11 11:38:44;;;;;;;43.13;16.90;;;;;;;;;;5027984;28;20049;-76
2021/12/11 11:41:14;;;;;;;43.90;17.77;;;;;;;;;;5011611;28;20050;-76
2021/12/11 11:43:40;;;;;;;41.70;16.50;;;;;;;;;;5011676;28;20044;-75
2021/12/11 11:46:07;;;;;;;42.65;18.63;;;;;;;;;;5027789;28;20042;-76
2021/12/11 11:48:35;;;;;;;48.10;18.75;;;;;;;;;;5027902;28;20390;-76
2021/12/11 11:51:02;;;;;;;44.08;17.40;;;;;;;;;;5027887;28;20088;-76
2021/12/11 11:53:28;;;;;;;41.72;18.50;;;;;;;;;;5027746;28;20393;-76
2021/12/11 11:55:59;;;;;;;47.97;18.83;;;;;;;;;;5011696;28;20049;-76
2021/12/11 11:58:27;;;;;;;44.85;18.52;;;;;;;;;;5027587;28;20057;-75
2021/12/11 12:00:57;;;;;;;49.05;18.65;;;;;;;;;;5011324;28;20096;-74
2021/12/11 12:03:28;;;;;;;45.33;18.23;;;;;;;;;;5027680;28;20072;-75
2021/12/11 12:05:56;;;;;;;41.38;17.52;;;;;;;;;;5027651;28;20061;-75
2021/12/11 12:08:22;;;;;;;42.58;18.58;;;;;;;;;;5011323;28;20132;-75
2021/12/11 12:10:49;;;;;;;41.33;17.52;;;;;;;;;;5010546;28;20204;-75
2021/12/11 12:13:17;;;;;;;43.00;18.02;;;;;;;;;;5010903;28;20049;-75
2021/12/11 12:15:47;;;;;;;45.22;19.27;;;;;;;;;;5010912;28;20052;-75
2021/12/11 12:18:13;;;;;;;41.17;17.58;;;;;;;;;;5027553;28;20064;-75
2021/12/11 12:20:41;;;;;;;44.42;17.50;;;;;;;;;;5010521;28;20405;-74
2021/12/11 12:23:08;;;;;;;37.85;15.48;;;;;;;;;;5027060;28;20418;-75
2021/12/11 12:25:35;;;;;;;39.22;17.45;;;;;;;;;;5011183;28;20443;-74
2021/12/11 12:28:01;;;;;;;38.67;17.98;;;;;;;;;;5026956;28;20082;-74
2021/12/11 12:30:32;;;;;;;41.13;17.77;;;;;;;;;;5027040;28;20460;-74
2021/12/11 12:32:58;;;;;;;39.15;17.27;;;;;;;;;;5010204;28;20409;-75
2021/12/11 12:35:25;;;;;;;42.30;18.05;;;;;;;;;;5027036;28;20045;-74
2021/12/11 12:37:52;;;;;;;40.10;16.88;;;;;;;;;;5011145;28;20049;-74
2021/12/11 12:40:28;;;;;;;40.15;18.63;;;;;;;;;;5026932;28;20124;-75
2021/12/11 12:42:57;;;;;;;38.22;16.52;;;;;;;;;;5011210;28;20386;-75
2021/12/11 12:45:35;;;;;;;36.67;17.77;;;;;;;;;;5027322;28;20126;-74
2021/12/11 12:48:05;;;;;;;41.15;17.40;;;;;;;;;;5010903;28;20041;-74
2021/12/11 12:50:43;;;;;;;39.92;18.00;;;;;;;;;;5010819;28;20048;-75
2021/12/11 12:53:10;;;;;;;36.22;16.30;;;;;;;;;;5026993;28;20132;-74
2021/12/11 12:55:39;;;;;;;35.30;16.98;;;;;;;;;;5026487;28;20457;-75
2021/12/11 12:58:09;;;;;;;39.90;16.73;;;;;;;;;;5009953;28;20056;-75
2021/12/11 13:00:39;;;;;;;37.40;17.03;;;;;;;;;;5010438;28;20041;-75
2021/12/11 13:03:13;;;;;;;37.13;16.30;;;;;;;;;;5011023;28;20284;-75
2021/12/11 13:05:47;;;;;;;37.00;16.42;;;;;;;;;;5027019;28;20188;-75
2021/12/11 13:08:16;;;;;;;37.80;16.95;;;;;;;;;;5026607;28;20165;-75
2021/12/11 13:10:46;;;;;;;39.30;17.45;;;;;;;;;;5009892;28;20042;-75
2021/12/11 13:13:12;;;;;;;36.55;17.25;;;;;;;;;;5010168;28;20049;-75
2021/12/11 13:15:59;;;;;;;40.15;18.00;;;;;;;;;;5010020;28;20372;-74
2021/12/11 13:18:29;;;;;;;36.42;17.23;;;;;;;;;;5026633;28;20050;-74
2021/12/11 13:21:02;;;;;;;38.78;17.80;;;;;;;;;;5026669;28;20041;-74
2021/12/11 13:23:30;;;;;;;39.17;16.33;;;;;;;;;;5013993;28;20060;-75
2021/12/11 13:25:59;;;;;;;42.88;17.95;;;;;;;;;;5014051;28;20408;-74
2021/12/11 13:28:26;;;;;;;44.13;18.25;;;;;;;;;;5014020;28;20068;-75
2021/12/11 13:30:55;;;;;;;39.50;16.55;;;;;;;;;;5030622;28;20259;-76
2021/12/11 13:33:22;;;;;;;36.67;17.55;;;;;;;;;;5013666;28;20049;-74
2021/12/11 13:35:48;;;;;;;41.22;18.42;;;;;;;;;;5013919;28;20449;-75
2021/12/11 13:38:16;;;;;;;44.10;17.35;;;;;;;;;;5030288;28;20045;-75
2021/12/11 13:40:45;;;;;;;39.53;16.40;;;;;;;;;;5013724;28;20158;-74
2021/12/11 13:43:12;;;;;;;42.70;17.55;;;;;;;;;;5030154;28;20521;-74
2021/12/11 13:45:39;;;;;;;43.65;18.52;;;;;;;;;;5029797;28;20033;-74
2021/12/11 13:48:07;;;;;;;44.05;18.15;;;;;;;;;;5029997;28;20037;-74
2021/12/11 13:50:36;;;;;;;38.55;17.63;;;;;;;;;;5030354;28;20057;-75
2021/12/11 13:53:03;;;;;;;37.70;17.23;;;;;;;;;;5013575;28;20071;-76
2021/12/11 13:55:29;;;;;;;39.65;18.00;;;;;;;;;;5029977;28;20520;-74
2021/12/11 13:57:57;;;;;;;46.85;18.90;;;;;;;;;;5013036;28;20055;-74
2021/12/11 14:00:26;;;;;;;41.65;17.58;;;;;;;;;;5013278;28;20425;-73
2021/12/11 14:02:52;;;;;;;35.88;17.85;;;;;;;;;;5013427;28;20571;-74
2021/12/11 14:05:18;;;;;;;37.38;16.63;;;;;;;;;;5029894;28;20037;-75
2021/12/11 14:07:44;;;;;;;39.80;16.98;;;;;;;;;;5013460;28;20132;-75
2021/12/11 14:10:19;;;;;;;37.50;16.20;;;;;;;;;;5012828;28;20049;-75
2021/12/11 14:12:45;;;;;;;37.00;16.58;;;;;;;;;;5029860;28;20053;-75
2021/12/11 14:15:11;;;;;;;38.60;17.30;;;;;;;;;;5013316;28;20075;-75
2021/12/11 14:17:37;;;;;;;37.13;17.33;;;;;;;;;;5029780;28;20048;-75
2021/12/11 14:20:04;;;;;;;34.20;15.88;;;;;;;;;;5013067;28;20199;-75
2021/12/11 14:22:34;;;;;;;37.38;16.17;;;;;;;;;;5029003;28;20391;-74
2021/12/11 14:25:00;;;;;;;38.63;16.45;;;;;;;;;;5029361;28;20065;-75
2021/12/11 14:27:26;;;;;;;30.92;15.18;;;;;;;;;;5029163;28;20069;-74
2021/12/11 14:29:55;;;;;;;37.67;16.10;;;;;;;;;;5029204;28;20056;-75
2021/12/11 14:32:25;;;;;;;36.22;15.73;;;;;;;;;;5028927;28;20143;-75
2021/12/11 14:34:51;;;;;;;35.88;16.55;;;;;;;;;;5029162;28;20073;-75
2021/12/11 14:37:17;;;;;;;37.45;16.27;;;;;;;;;;5012642;28;20049;-75
2021/12/11 14:39:47;;;;;;;36.00;15.85;;;;;;;;;;5012339;28;20486;-75
2021/12/11 14:42:21;;;;;;;37.92;17.92;;;;;;;;;;5029052;28;20096;-75